Indianápolis, IN

12:44 PM EST en Diciembre 22, 2014 (GMT -0500)
North Fountain Square | Change Station
CLOSE
Current Station
Estación meteorológica personal
Location: Indianapolis, IN
Altura: 738 ft
Estaciones meteorológicas cercanas

Alt 738 ft 39.76 °N, 86.14 °W | Updated 6 seconds ago

Nublado
Nublado
40.6 ° F
Sensación térmica 41 ° F
N
1.3
Viento Variable Viento desde ESE
Gusts 2.5 mph

Hoy
Alta -- | Baja -- ° F
--% Posibilidad de precipitaciones
Ayer
Alta -- | Baja -- ° F
Precip. -- pul
8:02 AM 5:23 PM
Luna nueva, 1% visible
Presión 29.87 pul
Visibilidad 10.0 Millas
Nubes Nublado 1100 ft
Vientos helados 41 ° F
Punto de rocío 35 ° F
Humedad 80%
Precipitaciones 0.00 pul
Espesor de la nieve No disponible.
UV 1 de una escala de 12
Polen .10 de una escala de 12
Calidad del aire No disponible.
Flu Activity No disponible.
SPECI KIND 221712Z 12010KT 10SM OVC011 03/00 A2987 RMK AO2 T00330000

More Conditions Fewer Conditions

Presión 29.87 pul
Visibilidad 10.0 Millas
Nubes Nublado 1100 ft
Vientos helados 41 ° F
Punto de rocío 35 ° F
Humedad 80%
Precipitaciones 0.00 pul
Espesor de la nieve No disponible.
UV 1 de una escala de 12
Polen .10 de una escala de 12
Calidad del aire No disponible.
Flu Activity No disponible.
SPECI KIND 221712Z 12010KT 10SM OVC011 03/00 A2987 RMK AO2 T00330000

More Conditions Fewer Conditions

10-Day Weather Forecast

Almanac

Astronomía

Dec. 22, 2014 Salida Puesta
Hora real
Crepúsculo civil
Crepúsculo náutico
Crepúsculo astronómico
Luna
Horas de luz
Horas de luz
Tomorrow will be .
, % of the Moon is Illuminated

Extremos de hoy

Máximos del estado Bajos del estado

Community

WunderPhotos

Upload Photos

1,779,655 ¡fotos cargadas!

WunderBlogs® & News

Nearby

Calidad del aire

  Calidad del aire Índice AQ Contaminante
Not available.

Grosos de nieve

Estación Profundido Altura

Actividad de terremotos

Ciudad Distance Mag. Tiempo y dato
Magnitud mínima muestra es 2,5.

Temperaturas de aguas costeras

Lugar Temperatura

Estaciones meteorológicas cercanas